sensor_id;sensor_type;location;lat;lon;timestamp;P1;durP1;ratioP1;P2;durP2;ratioP2
33593;SDS011;19920;52.242;20.940;2023-09-12T00:00:51;21.73;;;16.98;;
33593;SDS011;19920;52.242;20.940;2023-09-12T00:03:20;23.85;;;16.55;;
33593;SDS011;19920;52.242;20.940;2023-09-12T00:05:54;21.05;;;16.20;;
33593;SDS011;19920;52.242;20.940;2023-09-12T00:08:21;22.10;;;16.83;;
33593;SDS011;19920;52.242;20.940;2023-09-12T00:10:47;22.95;;;17.88;;
33593;SDS011;19920;52.242;20.940;2023-09-12T00:13:23;21.48;;;16.75;;
33593;SDS011;19920;52.242;20.940;2023-09-12T00:15:48;23.13;;;17.48;;
33593;SDS011;19920;52.242;20.940;2023-09-12T00:18:14;23.25;;;17.90;;
33593;SDS011;19920;52.242;20.940;2023-09-12T00:20:39;22.42;;;17.38;;
33593;SDS011;19920;52.242;20.940;2023-09-12T00:23:05;21.50;;;16.08;;
33593;SDS011;19920;52.242;20.940;2023-09-12T00:25:30;22.83;;;18.45;;
33593;SDS011;19920;52.242;20.940;2023-09-12T00:27:56;22.00;;;17.08;;
33593;SDS011;19920;52.242;20.940;2023-09-12T00:30:21;22.52;;;17.38;;
33593;SDS011;19920;52.242;20.940;2023-09-12T00:32:47;22.92;;;17.67;;
33593;SDS011;19920;52.242;20.940;2023-09-12T00:35:13;22.55;;;17.45;;
33593;SDS011;19920;52.242;20.940;2023-09-12T00:37:38;24.73;;;17.88;;
33593;SDS011;19920;52.242;20.940;2023-09-12T00:40:04;22.50;;;17.30;;
33593;SDS011;19920;52.242;20.940;2023-09-12T00:42:30;20.92;;;17.98;;
33593;SDS011;19920;52.242;20.940;2023-09-12T00:44:56;23.10;;;17.45;;
33593;SDS011;19920;52.242;20.940;2023-09-12T00:47:21;22.48;;;16.80;;
33593;SDS011;19920;52.242;20.940;2023-09-12T00:49:48;22.98;;;17.55;;
33593;SDS011;19920;52.242;20.940;2023-09-12T00:52:15;25.55;;;17.92;;
33593;SDS011;19920;52.242;20.940;2023-09-12T00:54:41;20.88;;;17.52;;
33593;SDS011;19920;52.242;20.940;2023-09-12T00:57:07;21.38;;;17.73;;
33593;SDS011;19920;52.242;20.940;2023-09-12T00:59:32;21.88;;;17.25;;
33593;SDS011;19920;52.242;20.940;2023-09-12T01:01:58;22.13;;;17.73;;
33593;SDS011;19920;52.242;20.940;2023-09-12T01:04:26;24.00;;;18.42;;
33593;SDS011;19920;52.242;20.940;2023-09-12T01:06:52;20.52;;;17.83;;
33593;SDS011;19920;52.242;20.940;2023-09-12T01:09:18;26.30;;;18.65;;
33593;SDS011;19920;52.242;20.940;2023-09-12T01:11:43;21.48;;;17.90;;
33593;SDS011;19920;52.242;20.940;2023-09-12T01:14:09;21.23;;;16.65;;
33593;SDS011;19920;52.242;20.940;2023-09-12T01:16:35;21.67;;;18.33;;
33593;SDS011;19920;52.242;20.940;2023-09-12T01:19:01;21.20;;;17.35;;
33593;SDS011;19920;52.242;20.940;2023-09-12T01:27:12;23.60;;;18.15;;
33593;SDS011;19920;52.242;20.940;2023-09-12T01:29:57;23.95;;;17.80;;
33593;SDS011;19920;52.242;20.940;2023-09-12T01:32:26;22.85;;;18.38;;
33593;SDS011;19920;52.242;20.940;2023-09-12T01:34:54;20.92;;;16.88;;
33593;SDS011;19920;52.242;20.940;2023-09-12T01:37:19;20.20;;;17.98;;
33593;SDS011;19920;52.242;20.940;2023-09-12T01:39:45;20.65;;;17.48;;
33593;SDS011;19920;52.242;20.940;2023-09-12T01:42:11;22.83;;;18.48;;
33593;SDS011;19920;52.242;20.940;2023-09-12T01:47:06;22.85;;;17.42;;
33593;SDS011;19920;52.242;20.940;2023-09-12T01:49:32;23.00;;;18.13;;
33593;SDS011;19920;52.242;20.940;2023-09-12T01:51:59;21.58;;;17.42;;
33593;SDS011;19920;52.242;20.940;2023-09-12T01:54:26;21.63;;;18.13;;
33593;SDS011;19920;52.242;20.940;2023-09-12T01:56:55;18.83;;;16.80;;
33593;SDS011;19920;52.242;20.940;2023-09-12T01:59:22;21.42;;;17.88;;
33593;SDS011;19920;52.242;20.940;2023-09-12T02:01:49;24.20;;;18.17;;
33593;SDS011;19920;52.242;20.940;2023-09-12T02:04:15;21.00;;;18.20;;
33593;SDS011;19920;52.242;20.940;2023-09-12T02:06:41;22.08;;;18.40;;
33593;SDS011;19920;52.242;20.940;2023-09-12T02:09:06;21.65;;;17.52;;
33593;SDS011;19920;52.242;20.940;2023-09-12T02:11:32;21.63;;;17.27;;
33593;SDS011;19920;52.242;20.940;2023-09-12T02:13:57;20.65;;;18.02;;
33593;SDS011;19920;52.242;20.940;2023-09-12T02:16:23;23.30;;;17.52;;
33593;SDS011;19920;52.242;20.940;2023-09-12T02:18:49;22.42;;;17.75;;
33593;SDS011;19920;52.242;20.940;2023-09-12T02:21:14;22.25;;;18.05;;
33593;SDS011;19920;52.242;20.940;2023-09-12T02:23:41;23.70;;;17.95;;
33593;SDS011;19920;52.242;20.940;2023-09-12T02:26:07;24.30;;;18.73;;
33593;SDS011;19920;52.242;20.940;2023-09-12T02:28:32;22.42;;;19.42;;
33593;SDS011;19920;52.242;20.940;2023-09-12T02:30:58;21.77;;;19.40;;
33593;SDS011;19920;52.242;20.940;2023-09-12T02:33:23;21.80;;;18.02;;
33593;SDS011;19920;52.242;20.940;2023-09-12T02:35:49;24.38;;;19.75;;
33593;SDS011;19920;52.242;20.940;2023-09-12T02:38:15;22.27;;;18.05;;
33593;SDS011;19920;52.242;20.940;2023-09-12T02:40:41;23.45;;;17.77;;
33593;SDS011;19920;52.242;20.940;2023-09-12T02:43:06;19.92;;;17.80;;
33593;SDS011;19920;52.242;20.940;2023-09-12T02:45:33;23.25;;;18.50;;
33593;SDS011;19920;52.242;20.940;2023-09-12T02:47:58;22.55;;;18.52;;
33593;SDS011;19920;52.242;20.940;2023-09-12T02:50:24;22.13;;;18.67;;
33593;SDS011;19920;52.242;20.940;2023-09-12T02:52:50;23.70;;;18.92;;
33593;SDS011;19920;52.242;20.940;2023-09-12T02:55:15;25.27;;;19.17;;
33593;SDS011;19920;52.242;20.940;2023-09-12T02:57:41;31.98;;;20.75;;
33593;SDS011;19920;52.242;20.940;2023-09-12T03:00:06;26.23;;;19.92;;
33593;SDS011;19920;52.242;20.940;2023-09-12T03:02:34;26.30;;;20.13;;
33593;SDS011;19920;52.242;20.940;2023-09-12T03:04:59;26.98;;;21.10;;
33593;SDS011;19920;52.242;20.940;2023-09-12T03:07:26;28.70;;;19.58;;
33593;SDS011;19920;52.242;20.940;2023-09-12T03:09:52;26.35;;;20.60;;
33593;SDS011;19920;52.242;20.940;2023-09-12T03:12:17;31.70;;;21.83;;
33593;SDS011;19920;52.242;20.940;2023-09-12T03:14:43;29.60;;;21.35;;
33593;SDS011;19920;52.242;20.940;2023-09-12T03:17:09;24.90;;;19.85;;
33593;SDS011;19920;52.242;20.940;2023-09-12T03:19:34;28.35;;;20.50;;
33593;SDS011;19920;52.242;20.940;2023-09-12T03:22:00;32.67;;;22.10;;
33593;SDS011;19920;52.242;20.940;2023-09-12T03:24:25;29.30;;;21.17;;
33593;SDS011;19920;52.242;20.940;2023-09-12T03:26:53;37.05;;;21.90;;
33593;SDS011;19920;52.242;20.940;2023-09-12T03:29:19;37.30;;;22.58;;
33593;SDS011;19920;52.242;20.940;2023-09-12T03:31:44;31.40;;;22.23;;
33593;SDS011;19920;52.242;20.940;2023-09-12T03:34:10;28.90;;;20.98;;
33593;SDS011;19920;52.242;20.940;2023-09-12T03:36:35;30.88;;;22.50;;
33593;SDS011;19920;52.242;20.940;2023-09-12T03:39:01;34.45;;;22.20;;
33593;SDS011;19920;52.242;20.940;2023-09-12T03:41:28;27.95;;;21.40;;
33593;SDS011;19920;52.242;20.940;2023-09-12T03:43:53;32.17;;;21.63;;
33593;SDS011;19920;52.242;20.940;2023-09-12T03:46:20;26.55;;;20.70;;
33593;SDS011;19920;52.242;20.940;2023-09-12T03:48:46;30.55;;;20.67;;
33593;SDS011;19920;52.242;20.940;2023-09-12T03:51:12;28.65;;;21.05;;
33593;SDS011;19920;52.242;20.940;2023-09-12T03:53:38;26.63;;;20.88;;
33593;SDS011;19920;52.242;20.940;2023-09-12T03:56:03;27.70;;;20.50;;
33593;SDS011;19920;52.242;20.940;2023-09-12T03:58:29;30.50;;;20.77;;
33593;SDS011;19920;52.242;20.940;2023-09-12T04:00:55;28.27;;;20.98;;
33593;SDS011;19920;52.242;20.940;2023-09-12T04:03:20;27.77;;;20.30;;
33593;SDS011;19920;52.242;20.940;2023-09-12T04:05:47;28.17;;;21.25;;
33593;SDS011;19920;52.242;20.940;2023-09-12T04:08:12;26.70;;;20.23;;
33593;SDS011;19920;52.242;20.940;2023-09-12T04:10:38;28.55;;;20.75;;
33593;SDS011;19920;52.242;20.940;2023-09-12T04:13:04;32.30;;;22.55;;
33593;SDS011;19920;52.242;20.940;2023-09-12T04:15:29;30.58;;;21.00;;
33593;SDS011;19920;52.242;20.940;2023-09-12T04:17:55;28.98;;;21.50;;
33593;SDS011;19920;52.242;20.940;2023-09-12T04:20:20;30.70;;;21.92;;
33593;SDS011;19920;52.242;20.940;2023-09-12T04:22:46;28.88;;;21.13;;
33593;SDS011;19920;52.242;20.940;2023-09-12T04:25:12;28.40;;;21.00;;
33593;SDS011;19920;52.242;20.940;2023-09-12T04:27:37;34.63;;;22.63;;
33593;SDS011;19920;52.242;20.940;2023-09-12T04:30:03;28.83;;;21.77;;
33593;SDS011;19920;52.242;20.940;2023-09-12T04:32:31;30.48;;;21.10;;
33593;SDS011;19920;52.242;20.940;2023-09-12T04:34:57;32.47;;;21.17;;
33593;SDS011;19920;52.242;20.940;2023-09-12T04:37:23;27.80;;;22.05;;
33593;SDS011;19920;52.242;20.940;2023-09-12T04:39:48;33.95;;;22.92;;
33593;SDS011;19920;52.242;20.940;2023-09-12T04:42:14;31.27;;;21.95;;
33593;SDS011;19920;52.242;20.940;2023-09-12T04:44:40;30.67;;;22.73;;
33593;SDS011;19920;52.242;20.940;2023-09-12T04:47:06;28.23;;;21.25;;
33593;SDS011;19920;52.242;20.940;2023-09-12T04:49:33;33.30;;;23.02;;
33593;SDS011;19920;52.242;20.940;2023-09-12T04:51:58;28.83;;;22.80;;
33593;SDS011;19920;52.242;20.940;2023-09-12T04:54:24;30.00;;;21.98;;
33593;SDS011;19920;52.242;20.940;2023-09-12T04:56:50;29.98;;;22.35;;
33593;SDS011;19920;52.242;20.940;2023-09-12T04:59:16;29.38;;;22.08;;
33593;SDS011;19920;52.242;20.940;2023-09-12T05:01:42;29.90;;;22.02;;
33593;SDS011;19920;52.242;20.940;2023-09-12T05:04:07;31.60;;;22.70;;
33593;SDS011;19920;52.242;20.940;2023-09-12T05:06:34;30.25;;;24.15;;
33593;SDS011;19920;52.242;20.940;2023-09-12T05:09:00;31.15;;;22.58;;
33593;SDS011;19920;52.242;20.940;2023-09-12T05:11:26;33.08;;;22.65;;
33593;SDS011;19920;52.242;20.940;2023-09-12T05:13:51;29.67;;;23.83;;
33593;SDS011;19920;52.242;20.940;2023-09-12T05:16:17;30.60;;;23.02;;
33593;SDS011;19920;52.242;20.940;2023-09-12T05:18:42;30.35;;;22.38;;
33593;SDS011;19920;52.242;20.940;2023-09-12T05:21:08;33.03;;;23.15;;
33593;SDS011;19920;52.242;20.940;2023-09-12T05:23:34;32.17;;;24.13;;
33593;SDS011;19920;52.242;20.940;2023-09-12T05:26:00;32.33;;;22.83;;
33593;SDS011;19920;52.242;20.940;2023-09-12T05:28:25;33.15;;;22.88;;
33593;SDS011;19920;52.242;20.940;2023-09-12T05:30:51;33.28;;;23.00;;
33593;SDS011;19920;52.242;20.940;2023-09-12T05:33:17;31.63;;;22.52;;
33593;SDS011;19920;52.242;20.940;2023-09-12T05:35:43;35.78;;;23.55;;
33593;SDS011;19920;52.242;20.940;2023-09-12T05:38:11;31.92;;;23.20;;
33593;SDS011;19920;52.242;20.940;2023-09-12T05:40:37;31.42;;;23.02;;
33593;SDS011;19920;52.242;20.940;2023-09-12T05:43:02;31.60;;;22.42;;
33593;SDS011;19920;52.242;20.940;2023-09-12T05:45:28;35.50;;;24.02;;
33593;SDS011;19920;52.242;20.940;2023-09-12T05:47:57;31.80;;;23.25;;
33593;SDS011;19920;52.242;20.940;2023-09-12T05:50:23;28.35;;;23.48;;
33593;SDS011;19920;52.242;20.940;2023-09-12T05:52:49;33.53;;;23.40;;
33593;SDS011;19920;52.242;20.940;2023-09-12T05:55:16;29.40;;;22.77;;
33593;SDS011;19920;52.242;20.940;2023-09-12T05:57:42;35.67;;;24.67;;
33593;SDS011;19920;52.242;20.940;2023-09-12T06:00:08;35.45;;;24.33;;
33593;SDS011;19920;52.242;20.940;2023-09-12T06:02:40;32.20;;;23.10;;
33593;SDS011;19920;52.242;20.940;2023-09-12T06:07:32;36.38;;;23.20;;
33593;SDS011;19920;52.242;20.940;2023-09-12T06:09:58;37.30;;;23.77;;
33593;SDS011;19920;52.242;20.940;2023-09-12T06:12:23;34.35;;;23.73;;
33593;SDS011;19920;52.242;20.940;2023-09-12T06:14:51;33.17;;;22.33;;
33593;SDS011;19920;52.242;20.940;2023-09-12T06:17:18;37.67;;;23.53;;
33593;SDS011;19920;52.242;20.940;2023-09-12T06:19:43;35.47;;;21.40;;
33593;SDS011;19920;52.242;20.940;2023-09-12T06:22:09;36.13;;;21.50;;
33593;SDS011;19920;52.242;20.940;2023-09-12T06:24:35;38.70;;;22.08;;
33593;SDS011;19920;52.242;20.940;2023-09-12T06:27:00;29.60;;;19.75;;
33593;SDS011;19920;52.242;20.940;2023-09-12T06:29:26;30.88;;;20.08;;
33593;SDS011;19920;52.242;20.940;2023-09-12T06:31:51;32.40;;;19.77;;
33593;SDS011;19920;52.242;20.940;2023-09-12T06:34:17;31.92;;;19.27;;
33593;SDS011;19920;52.242;20.940;2023-09-12T06:36:42;26.25;;;19.50;;
33593;SDS011;19920;52.242;20.940;2023-09-12T06:39:10;31.35;;;19.83;;
33593;SDS011;19920;52.242;20.940;2023-09-12T06:41:35;25.02;;;20.00;;
33593;SDS011;19920;52.242;20.940;2023-09-12T06:44:01;29.10;;;19.10;;
33593;SDS011;19920;52.242;20.940;2023-09-12T06:46:28;27.90;;;19.80;;
33593;SDS011;19920;52.242;20.940;2023-09-12T06:48:53;26.08;;;18.33;;
33593;SDS011;19920;52.242;20.940;2023-09-12T06:51:22;23.17;;;18.67;;
33593;SDS011;19920;52.242;20.940;2023-09-12T06:53:49;25.88;;;18.25;;
33593;SDS011;19920;52.242;20.940;2023-09-12T06:56:16;23.67;;;16.98;;
33593;SDS011;19920;52.242;20.940;2023-09-12T06:58:41;27.00;;;16.77;;
33593;SDS011;19920;52.242;20.940;2023-09-12T07:01:07;23.88;;;16.20;;
33593;SDS011;19920;52.242;20.940;2023-09-12T07:03:33;19.85;;;15.68;;
33593;SDS011;19920;52.242;20.940;2023-09-12T07:05:59;20.52;;;16.35;;
33593;SDS011;19920;52.242;20.940;2023-09-12T07:08:25;21.60;;;15.50;;
33593;SDS011;19920;52.242;20.940;2023-09-12T07:10:51;22.88;;;15.43;;
33593;SDS011;19920;52.242;20.940;2023-09-12T07:13:19;19.17;;;15.07;;
33593;SDS011;19920;52.242;20.940;2023-09-12T07:15:51;23.20;;;15.02;;
33593;SDS011;19920;52.242;20.940;2023-09-12T07:18:17;24.63;;;14.60;;
33593;SDS011;19920;52.242;20.940;2023-09-12T07:20:44;21.63;;;16.10;;
33593;SDS011;19920;52.242;20.940;2023-09-12T07:23:10;20.73;;;16.30;;
33593;SDS011;19920;52.242;20.940;2023-09-12T07:25:37;20.17;;;14.18;;
33593;SDS011;19920;52.242;20.940;2023-09-12T07:28:05;21.35;;;14.50;;
33593;SDS011;19920;52.242;20.940;2023-09-12T07:30:30;21.58;;;15.00;;
33593;SDS011;19920;52.242;20.940;2023-09-12T07:32:56;17.77;;;14.35;;
33593;SDS011;19920;52.242;20.940;2023-09-12T07:35:21;16.10;;;14.00;;
33593;SDS011;19920;52.242;20.940;2023-09-12T07:37:49;21.60;;;13.70;;
33593;SDS011;19920;52.242;20.940;2023-09-12T07:40:15;20.55;;;14.82;;
33593;SDS011;19920;52.242;20.940;2023-09-12T07:42:40;19.42;;;14.23;;
33593;SDS011;19920;52.242;20.940;2023-09-12T07:45:06;20.38;;;13.52;;
33593;SDS011;19920;52.242;20.940;2023-09-12T07:47:32;22.08;;;13.68;;
33593;SDS011;19920;52.242;20.940;2023-09-12T07:49:58;23.40;;;14.98;;
33593;SDS011;19920;52.242;20.940;2023-09-12T07:52:25;21.88;;;14.07;;
33593;SDS011;19920;52.242;20.940;2023-09-12T07:54:51;19.00;;;14.70;;
33593;SDS011;19920;52.242;20.940;2023-09-12T07:57:21;19.77;;;14.32;;
33593;SDS011;19920;52.242;20.940;2023-09-12T07:59:47;17.95;;;14.50;;
33593;SDS011;19920;52.242;20.940;2023-09-12T08:02:13;23.48;;;14.70;;
33593;SDS011;19920;52.242;20.940;2023-09-12T08:04:39;21.48;;;13.68;;
33593;SDS011;19920;52.242;20.940;2023-09-12T08:07:04;20.77;;;13.68;;
33593;SDS011;19920;52.242;20.940;2023-09-12T08:09:49;16.25;;;12.32;;
33593;SDS011;19920;52.242;20.940;2023-09-12T08:12:17;17.77;;;13.65;;
33593;SDS011;19920;52.242;20.940;2023-09-12T08:14:46;18.48;;;13.75;;
33593;SDS011;19920;52.242;20.940;2023-09-12T08:17:12;14.80;;;12.45;;
33593;SDS011;19920;52.242;20.940;2023-09-12T08:19:38;18.70;;;13.82;;
33593;SDS011;19920;52.242;20.940;2023-09-12T08:22:05;19.83;;;14.10;;
33593;SDS011;19920;52.242;20.940;2023-09-12T08:24:32;20.23;;;14.48;;
33593;SDS011;19920;52.242;20.940;2023-09-12T08:26:58;16.70;;;13.13;;
33593;SDS011;19920;52.242;20.940;2023-09-12T08:29:23;19.98;;;15.38;;
33593;SDS011;19920;52.242;20.940;2023-09-12T08:31:49;19.80;;;14.60;;
33593;SDS011;19920;52.242;20.940;2023-09-12T08:34:15;20.08;;;13.23;;
33593;SDS011;19920;52.242;20.940;2023-09-12T08:36:40;17.70;;;13.20;;
33593;SDS011;19920;52.242;20.940;2023-09-12T08:39:06;19.88;;;14.13;;
33593;SDS011;19920;52.242;20.940;2023-09-12T08:41:36;19.77;;;13.32;;
33593;SDS011;19920;52.242;20.940;2023-09-12T08:44:02;21.00;;;13.40;;
33593;SDS011;19920;52.242;20.940;2023-09-12T08:46:30;18.10;;;13.75;;
33593;SDS011;19920;52.242;20.940;2023-09-12T08:48:56;18.38;;;13.40;;
33593;SDS011;19920;52.242;20.940;2023-09-12T08:51:23;19.00;;;12.75;;
33593;SDS011;19920;52.242;20.940;2023-09-12T08:53:49;15.70;;;12.27;;
33593;SDS011;19920;52.242;20.940;2023-09-12T08:56:15;16.23;;;12.20;;
33593;SDS011;19920;52.242;20.940;2023-09-12T08:58:42;15.80;;;12.27;;
33593;SDS011;19920;52.242;20.940;2023-09-12T09:01:08;13.75;;;11.50;;
33593;SDS011;19920;52.242;20.940;2023-09-12T09:03:37;16.17;;;11.63;;
33593;SDS011;19920;52.242;20.940;2023-09-12T09:06:04;15.15;;;11.70;;
33593;SDS011;19920;52.242;20.940;2023-09-12T09:08:31;15.90;;;11.80;;
33593;SDS011;19920;52.242;20.940;2023-09-12T09:10:58;13.10;;;11.32;;
33593;SDS011;19920;52.242;20.940;2023-09-12T09:13:27;18.27;;;11.20;;
33593;SDS011;19920;52.242;20.940;2023-09-12T09:16:12;14.85;;;11.38;;
33593;SDS011;19920;52.242;20.940;2023-09-12T09:21:25;15.30;;;10.75;;
33593;SDS011;19920;52.242;20.940;2023-09-12T09:23:55;15.20;;;11.15;;
33593;SDS011;19920;52.242;20.940;2023-09-12T09:26:40;14.15;;;10.63;;
33593;SDS011;19920;52.242;20.940;2023-09-12T09:29:10;18.88;;;11.32;;
33593;SDS011;19920;52.242;20.940;2023-09-12T09:31:44;15.77;;;9.98;;
33593;SDS011;19920;52.242;20.940;2023-09-12T09:34:11;17.98;;;10.68;;
33593;SDS011;19920;52.242;20.940;2023-09-12T09:36:42;11.25;;;10.02;;
33593;SDS011;19920;52.242;20.940;2023-09-12T09:39:21;17.00;;;10.97;;
33593;SDS011;19920;52.242;20.940;2023-09-12T09:41:51;14.57;;;10.00;;
33593;SDS011;19920;52.242;20.940;2023-09-12T09:44:18;18.73;;;10.82;;
33593;SDS011;19920;52.242;20.940;2023-09-12T09:46:46;18.48;;;11.45;;
33593;SDS011;19920;52.242;20.940;2023-09-12T09:49:15;13.02;;;10.57;;
33593;SDS011;19920;52.242;20.940;2023-09-12T09:51:44;14.50;;;10.07;;
33593;SDS011;19920;52.242;20.940;2023-09-12T09:54:11;11.77;;;9.98;;
33593;SDS011;19920;52.242;20.940;2023-09-12T09:59:16;14.93;;;10.82;;
33593;SDS011;19920;52.242;20.940;2023-09-12T10:01:43;14.00;;;10.32;;
33593;SDS011;19920;52.242;20.940;2023-09-12T10:04:11;14.57;;;11.02;;
33593;SDS011;19920;52.242;20.940;2023-09-12T10:06:37;14.05;;;10.13;;
33593;SDS011;19920;52.242;20.940;2023-09-12T10:09:13;13.38;;;9.77;;
33593;SDS011;19920;52.242;20.940;2023-09-12T10:11:41;11.63;;;10.05;;
33593;SDS011;19920;52.242;20.940;2023-09-12T10:14:08;10.98;;;9.85;;
33593;SDS011;19920;52.242;20.940;2023-09-12T10:16:35;30.98;;;10.82;;
33593;SDS011;19920;52.242;20.940;2023-09-12T10:21:35;15.10;;;10.60;;
33593;SDS011;19920;52.242;20.940;2023-09-12T10:24:05;16.48;;;10.73;;
33593;SDS011;19920;52.242;20.940;2023-09-12T10:26:32;13.80;;;10.02;;
33593;SDS011;19920;52.242;20.940;2023-09-12T10:29:02;10.65;;;9.65;;
33593;SDS011;19920;52.242;20.940;2023-09-12T10:31:28;12.45;;;9.93;;
33593;SDS011;19920;52.242;20.940;2023-09-12T10:33:55;13.25;;;10.23;;
33593;SDS011;19920;52.242;20.940;2023-09-12T10:36:24;16.03;;;10.27;;
33593;SDS011;19920;52.242;20.940;2023-09-12T10:38:51;11.60;;;10.50;;
33593;SDS011;19920;52.242;20.940;2023-09-12T10:41:17;11.95;;;10.38;;
33593;SDS011;19920;52.242;20.940;2023-09-12T10:43:46;12.55;;;10.02;;
33593;SDS011;19920;52.242;20.940;2023-09-12T10:46:17;13.10;;;10.52;;
33593;SDS011;19920;52.242;20.940;2023-09-12T10:48:43;16.38;;;10.52;;
33593;SDS011;19920;52.242;20.940;2023-09-12T10:51:09;18.98;;;11.05;;
33593;SDS011;19920;52.242;20.940;2023-09-12T10:53:35;11.70;;;10.32;;
33593;SDS011;19920;52.242;20.940;2023-09-12T10:56:14;11.75;;;10.55;;
33593;SDS011;19920;52.242;20.940;2023-09-12T11:01:32;11.80;;;10.52;;
33593;SDS011;19920;52.242;20.940;2023-09-12T11:03:58;14.55;;;10.23;;
33593;SDS011;19920;52.242;20.940;2023-09-12T11:06:43;11.93;;;10.55;;
33593;SDS011;19920;52.242;20.940;2023-09-12T11:09:15;11.43;;;10.38;;
33593;SDS011;19920;52.242;20.940;2023-09-12T11:11:46;16.13;;;10.38;;
33593;SDS011;19920;52.242;20.940;2023-09-12T11:14:12;15.85;;;10.82;;
33593;SDS011;19920;52.242;20.940;2023-09-12T11:16:40;11.25;;;10.05;;
33593;SDS011;19920;52.242;20.940;2023-09-12T11:19:16;11.00;;;9.90;;
33593;SDS011;19920;52.242;20.940;2023-09-12T11:21:52;12.52;;;10.85;;
33593;SDS011;19920;52.242;20.940;2023-09-12T11:24:18;11.45;;;10.23;;
33593;SDS011;19920;52.242;20.940;2023-09-12T11:26:52;12.35;;;11.15;;
33593;SDS011;19920;52.242;20.940;2023-09-12T11:29:35;13.32;;;10.52;;
33593;SDS011;19920;52.242;20.940;2023-09-12T11:32:05;12.93;;;10.50;;
33593;SDS011;19920;52.242;20.940;2023-09-12T11:34:41;12.77;;;10.55;;
33593;SDS011;19920;52.242;20.940;2023-09-12T11:37:08;12.30;;;10.70;;
33593;SDS011;19920;52.242;20.940;2023-09-12T11:39:35;13.80;;;10.07;;
33593;SDS011;19920;52.242;20.940;2023-09-12T11:42:02;12.63;;;11.32;;
33593;SDS011;19920;52.242;20.940;2023-09-12T11:44:29;12.25;;;11.00;;
33593;SDS011;19920;52.242;20.940;2023-09-12T11:47:01;13.68;;;10.43;;
33593;SDS011;19920;52.242;20.940;2023-09-12T11:49:38;11.77;;;10.60;;
33593;SDS011;19920;52.242;20.940;2023-09-12T11:52:08;12.25;;;10.88;;
33593;SDS011;19920;52.242;20.940;2023-09-12T11:54:35;13.02;;;11.18;;
33593;SDS011;19920;52.242;20.940;2023-09-12T11:57:01;19.67;;;11.10;;
33593;SDS011;19920;52.242;20.940;2023-09-12T11:59:27;11.88;;;9.93;;
33593;SDS011;19920;52.242;20.940;2023-09-12T12:04:23;11.80;;;10.70;;
33593;SDS011;19920;52.242;20.940;2023-09-12T12:06:50;15.18;;;11.48;;
33593;SDS011;19920;52.242;20.940;2023-09-12T12:09:17;12.05;;;10.85;;
33593;SDS011;19920;52.242;20.940;2023-09-12T12:11:44;13.77;;;10.63;;
33593;SDS011;19920;52.242;20.940;2023-09-12T12:14:14;13.23;;;11.70;;
33593;SDS011;19920;52.242;20.940;2023-09-12T12:16:41;12.68;;;11.38;;
33593;SDS011;19920;52.242;20.940;2023-09-12T12:19:11;13.35;;;11.57;;
33593;SDS011;19920;52.242;20.940;2023-09-12T12:21:40;13.48;;;10.48;;
33593;SDS011;19920;52.242;20.940;2023-09-12T12:24:07;11.85;;;10.65;;
33593;SDS011;19920;52.242;20.940;2023-09-12T12:26:35;11.70;;;10.57;;
33593;SDS011;19920;52.242;20.940;2023-09-12T12:29:01;11.07;;;10.07;;
33593;SDS011;19920;52.242;20.940;2023-09-12T12:31:27;16.13;;;11.15;;
33593;SDS011;19920;52.242;20.940;2023-09-12T12:33:54;12.35;;;11.13;;
33593;SDS011;19920;52.242;20.940;2023-09-12T12:36:21;12.45;;;11.13;;
33593;SDS011;19920;52.242;20.940;2023-09-12T12:38:48;12.75;;;11.45;;
33593;SDS011;19920;52.242;20.940;2023-09-12T12:41:24;14.10;;;11.55;;
33593;SDS011;19920;52.242;20.940;2023-09-12T12:43:52;13.80;;;11.52;;
33593;SDS011;19920;52.242;20.940;2023-09-12T12:46:23;13.30;;;11.63;;
33593;SDS011;19920;52.242;20.940;2023-09-12T12:48:49;12.63;;;11.40;;
33593;SDS011;19920;52.242;20.940;2023-09-12T12:51:19;13.30;;;10.85;;
33593;SDS011;19920;52.242;20.940;2023-09-12T12:53:50;14.30;;;11.50;;
33593;SDS011;19920;52.242;20.940;2023-09-12T12:56:17;13.90;;;11.30;;
33593;SDS011;19920;52.242;20.940;2023-09-12T12:58:45;15.25;;;12.00;;
33593;SDS011;19920;52.242;20.940;2023-09-12T13:01:15;12.68;;;11.38;;
33593;SDS011;19920;52.242;20.940;2023-09-12T13:03:41;12.00;;;10.90;;
33593;SDS011;19920;52.242;20.940;2023-09-12T13:06:07;12.45;;;11.25;;
33593;SDS011;19920;52.242;20.940;2023-09-12T13:08:38;13.20;;;11.77;;
33593;SDS011;19920;52.242;20.940;2023-09-12T13:11:05;12.45;;;11.13;;
33593;SDS011;19920;52.242;20.940;2023-09-12T13:13:31;15.77;;;11.77;;
33593;SDS011;19920;52.242;20.940;2023-09-12T13:15:56;12.68;;;11.48;;
33593;SDS011;19920;52.242;20.940;2023-09-12T13:18:22;14.23;;;11.63;;
33593;SDS011;19920;52.242;20.940;2023-09-12T13:20:48;15.40;;;10.20;;
33593;SDS011;19920;52.242;20.940;2023-09-12T13:23:13;11.80;;;10.65;;
33593;SDS011;19920;52.242;20.940;2023-09-12T13:25:39;12.52;;;11.13;;
33593;SDS011;19920;52.242;20.940;2023-09-12T13:28:04;17.58;;;11.43;;
33593;SDS011;19920;52.242;20.940;2023-09-12T13:30:30;17.27;;;11.90;;
33593;SDS011;19920;52.242;20.940;2023-09-12T13:32:55;15.70;;;11.40;;
33593;SDS011;19920;52.242;20.940;2023-09-12T13:35:21;12.55;;;11.23;;
33593;SDS011;19920;52.242;20.940;2023-09-12T13:37:46;15.02;;;11.02;;
33593;SDS011;19920;52.242;20.940;2023-09-12T13:40:12;14.30;;;11.10;;
33593;SDS011;19920;52.242;20.940;2023-09-12T13:42:38;12.15;;;10.75;;
33593;SDS011;19920;52.242;20.940;2023-09-12T13:45:04;15.68;;;11.82;;
33593;SDS011;19920;52.242;20.940;2023-09-12T13:47:30;16.13;;;11.88;;
33593;SDS011;19920;52.242;20.940;2023-09-12T13:49:57;12.95;;;11.52;;
33593;SDS011;19920;52.242;20.940;2023-09-12T13:52:25;14.30;;;10.93;;
33593;SDS011;19920;52.242;20.940;2023-09-12T13:54:51;14.93;;;10.95;;
33593;SDS011;19920;52.242;20.940;2023-09-12T13:57:16;17.90;;;11.00;;
33593;SDS011;19920;52.242;20.940;2023-09-12T13:59:42;15.55;;;13.70;;
33593;SDS011;19920;52.242;20.940;2023-09-12T14:02:08;12.38;;;11.10;;
33593;SDS011;19920;52.242;20.940;2023-09-12T14:04:33;14.15;;;11.50;;
33593;SDS011;19920;52.242;20.940;2023-09-12T14:06:59;15.02;;;11.05;;
33593;SDS011;19920;52.242;20.940;2023-09-12T14:09:25;15.40;;;10.85;;
33593;SDS011;19920;52.242;20.940;2023-09-12T14:11:50;14.27;;;10.57;;
33593;SDS011;19920;52.242;20.940;2023-09-12T14:14:16;13.15;;;11.10;;
33593;SDS011;19920;52.242;20.940;2023-09-12T14:16:42;20.77;;;11.60;;
33593;SDS011;19920;52.242;20.940;2023-09-12T14:19:08;14.13;;;11.13;;
33593;SDS011;19920;52.242;20.940;2023-09-12T14:21:35;13.70;;;11.30;;
33593;SDS011;19920;52.242;20.940;2023-09-12T14:24:01;12.70;;;11.10;;
33593;SDS011;19920;52.242;20.940;2023-09-12T14:26:26;12.00;;;10.88;;
33593;SDS011;19920;52.242;20.940;2023-09-12T14:28:52;12.75;;;11.45;;
33593;SDS011;19920;52.242;20.940;2023-09-12T14:31:17;12.50;;;11.20;;